sensor_id;sensor_type;location;lat;lon;timestamp;P1;durP1;ratioP1;P2;durP2;ratioP2
46322;SDS011;32044;52.386;13.278;2023-12-22T00:01:26;7.68;;;2.20;;
46322;SDS011;32044;52.386;13.278;2023-12-22T00:03:54;8.60;;;1.70;;
46322;SDS011;32044;52.386;13.278;2023-12-22T00:06:22;12.15;;;2.28;;
46322;SDS011;32044;52.386;13.278;2023-12-22T00:08:50;11.65;;;2.10;;
46322;SDS011;32044;52.386;13.278;2023-12-22T00:11:17;10.88;;;2.17;;
46322;SDS011;32044;52.386;13.278;2023-12-22T00:13:44;17.88;;;2.53;;
46322;SDS011;32044;52.386;13.278;2023-12-22T00:16:12;12.20;;;2.35;;
46322;SDS011;32044;52.386;13.278;2023-12-22T00:18:40;27.25;;;2.97;;
46322;SDS011;32044;52.386;13.278;2023-12-22T00:21:10;11.30;;;2.70;;
46322;SDS011;32044;52.386;13.278;2023-12-22T00:23:39;11.00;;;2.90;;
46322;SDS011;32044;52.386;13.278;2023-12-22T00:26:07;12.15;;;2.70;;
46322;SDS011;32044;52.386;13.278;2023-12-22T00:28:34;15.75;;;3.20;;
46322;SDS011;32044;52.386;13.278;2023-12-22T00:31:05;11.73;;;2.92;;
46322;SDS011;32044;52.386;13.278;2023-12-22T00:33:32;12.38;;;3.03;;
46322;SDS011;32044;52.386;13.278;2023-12-22T00:36:00;18.63;;;3.63;;
46322;SDS011;32044;52.386;13.278;2023-12-22T00:38:29;8.73;;;2.65;;
46322;SDS011;32044;52.386;13.278;2023-12-22T00:40:57;19.00;;;3.22;;
46322;SDS011;32044;52.386;13.278;2023-12-22T00:43:24;9.68;;;2.08;;
46322;SDS011;32044;52.386;13.278;2023-12-22T00:45:52;10.05;;;2.60;;
46322;SDS011;32044;52.386;13.278;2023-12-22T00:48:19;10.60;;;2.20;;
46322;SDS011;32044;52.386;13.278;2023-12-22T00:50:47;11.93;;;1.73;;
46322;SDS011;32044;52.386;13.278;2023-12-22T00:53:14;9.60;;;2.05;;
46322;SDS011;32044;52.386;13.278;2023-12-22T00:55:43;13.20;;;2.15;;
46322;SDS011;32044;52.386;13.278;2023-12-22T00:58:12;10.93;;;2.00;;
46322;SDS011;32044;52.386;13.278;2023-12-22T01:00:39;14.95;;;2.20;;
46322;SDS011;32044;52.386;13.278;2023-12-22T01:03:07;12.40;;;2.45;;
46322;SDS011;32044;52.386;13.278;2023-12-22T01:05:34;11.80;;;2.30;;
46322;SDS011;32044;52.386;13.278;2023-12-22T01:08:02;14.07;;;2.55;;
46322;SDS011;32044;52.386;13.278;2023-12-22T01:10:30;10.25;;;2.25;;
46322;SDS011;32044;52.386;13.278;2023-12-22T01:12:58;8.27;;;2.70;;
46322;SDS011;32044;52.386;13.278;2023-12-22T01:15:26;11.85;;;2.97;;
46322;SDS011;32044;52.386;13.278;2023-12-22T01:17:54;16.05;;;3.35;;
46322;SDS011;32044;52.386;13.278;2023-12-22T01:20:21;9.05;;;2.65;;
46322;SDS011;32044;52.386;13.278;2023-12-22T01:22:49;13.10;;;3.15;;
46322;SDS011;32044;52.386;13.278;2023-12-22T01:25:17;12.20;;;2.45;;
46322;SDS011;32044;52.386;13.278;2023-12-22T01:27:44;14.88;;;3.28;;
46322;SDS011;32044;52.386;13.278;2023-12-22T01:30:14;14.98;;;2.70;;
46322;SDS011;32044;52.386;13.278;2023-12-22T01:32:41;15.18;;;2.72;;
46322;SDS011;32044;52.386;13.278;2023-12-22T01:35:09;15.80;;;2.95;;
46322;SDS011;32044;52.386;13.278;2023-12-22T01:37:36;14.68;;;2.70;;
46322;SDS011;32044;52.386;13.278;2023-12-22T01:40:05;16.23;;;2.72;;
46322;SDS011;32044;52.386;13.278;2023-12-22T01:42:32;11.77;;;3.13;;
46322;SDS011;32044;52.386;13.278;2023-12-22T01:45:00;15.05;;;3.42;;
46322;SDS011;32044;52.386;13.278;2023-12-22T01:47:29;14.35;;;3.45;;
46322;SDS011;32044;52.386;13.278;2023-12-22T01:49:56;22.20;;;3.85;;
46322;SDS011;32044;52.386;13.278;2023-12-22T01:52:24;21.00;;;4.13;;
46322;SDS011;32044;52.386;13.278;2023-12-22T01:54:52;13.82;;;3.35;;
46322;SDS011;32044;52.386;13.278;2023-12-22T01:57:21;12.48;;;3.70;;
46322;SDS011;32044;52.386;13.278;2023-12-22T01:59:48;18.52;;;3.95;;
46322;SDS011;32044;52.386;13.278;2023-12-22T02:02:16;22.27;;;3.08;;
46322;SDS011;32044;52.386;13.278;2023-12-22T02:04:45;18.00;;;3.78;;
46322;SDS011;32044;52.386;13.278;2023-12-22T02:07:14;17.98;;;4.07;;
46322;SDS011;32044;52.386;13.278;2023-12-22T02:09:42;15.55;;;3.42;;
46322;SDS011;32044;52.386;13.278;2023-12-22T02:12:10;15.07;;;3.20;;
46322;SDS011;32044;52.386;13.278;2023-12-22T02:14:37;15.57;;;3.05;;
46322;SDS011;32044;52.386;13.278;2023-12-22T02:17:11;21.02;;;3.10;;
46322;SDS011;32044;52.386;13.278;2023-12-22T02:19:41;10.98;;;2.80;;
46322;SDS011;32044;52.386;13.278;2023-12-22T02:22:11;10.63;;;2.85;;
46322;SDS011;32044;52.386;13.278;2023-12-22T02:24:40;16.95;;;3.08;;
46322;SDS011;32044;52.386;13.278;2023-12-22T02:27:10;11.43;;;2.83;;
46322;SDS011;32044;52.386;13.278;2023-12-22T02:29:42;16.05;;;2.92;;
46322;SDS011;32044;52.386;13.278;2023-12-22T02:32:12;13.68;;;2.58;;
46322;SDS011;32044;52.386;13.278;2023-12-22T02:34:41;13.37;;;2.47;;
46322;SDS011;32044;52.386;13.278;2023-12-22T02:37:09;14.98;;;2.65;;
46322;SDS011;32044;52.386;13.278;2023-12-22T02:39:37;13.43;;;3.25;;
46322;SDS011;32044;52.386;13.278;2023-12-22T02:42:07;17.25;;;2.72;;
46322;SDS011;32044;52.386;13.278;2023-12-22T02:44:34;10.25;;;2.75;;
46322;SDS011;32044;52.386;13.278;2023-12-22T02:47:02;16.42;;;2.97;;
46322;SDS011;32044;52.386;13.278;2023-12-22T02:49:30;19.85;;;2.60;;
46322;SDS011;32044;52.386;13.278;2023-12-22T02:51:58;12.35;;;2.25;;
46322;SDS011;32044;52.386;13.278;2023-12-22T02:54:25;14.50;;;2.30;;
46322;SDS011;32044;52.386;13.278;2023-12-22T02:56:56;12.82;;;2.78;;
46322;SDS011;32044;52.386;13.278;2023-12-22T02:59:26;9.90;;;2.40;;
46322;SDS011;32044;52.386;13.278;2023-12-22T03:01:55;11.82;;;2.42;;
46322;SDS011;32044;52.386;13.278;2023-12-22T03:04:22;9.43;;;2.30;;
46322;SDS011;32044;52.386;13.278;2023-12-22T03:06:50;12.65;;;2.13;;
46322;SDS011;32044;52.386;13.278;2023-12-22T03:09:17;15.55;;;2.22;;
46322;SDS011;32044;52.386;13.278;2023-12-22T03:11:45;11.40;;;2.70;;
46322;SDS011;32044;52.386;13.278;2023-12-22T03:14:12;11.80;;;2.03;;
46322;SDS011;32044;52.386;13.278;2023-12-22T03:16:41;11.43;;;2.67;;
46322;SDS011;32044;52.386;13.278;2023-12-22T03:19:08;12.45;;;2.85;;
46322;SDS011;32044;52.386;13.278;2023-12-22T03:21:39;11.68;;;2.30;;
46322;SDS011;32044;52.386;13.278;2023-12-22T03:24:06;12.18;;;2.53;;
46322;SDS011;32044;52.386;13.278;2023-12-22T03:26:33;15.73;;;2.58;;
46322;SDS011;32044;52.386;13.278;2023-12-22T03:29:01;14.25;;;2.10;;
46322;SDS011;32044;52.386;13.278;2023-12-22T03:31:28;11.80;;;2.20;;
46322;SDS011;32044;52.386;13.278;2023-12-22T03:33:57;12.48;;;2.40;;
46322;SDS011;32044;52.386;13.278;2023-12-22T03:36:25;9.82;;;1.98;;
46322;SDS011;32044;52.386;13.278;2023-12-22T03:38:53;11.98;;;2.80;;
46322;SDS011;32044;52.386;13.278;2023-12-22T03:41:20;10.30;;;2.00;;
46322;SDS011;32044;52.386;13.278;2023-12-22T03:43:48;10.68;;;2.30;;
46322;SDS011;32044;52.386;13.278;2023-12-22T03:46:15;19.70;;;3.38;;
46322;SDS011;32044;52.386;13.278;2023-12-22T03:48:43;7.00;;;1.70;;
46322;SDS011;32044;52.386;13.278;2023-12-22T03:51:12;19.77;;;2.67;;
46322;SDS011;32044;52.386;13.278;2023-12-22T03:53:41;11.05;;;2.42;;
46322;SDS011;32044;52.386;13.278;2023-12-22T03:56:08;11.15;;;1.90;;
46322;SDS011;32044;52.386;13.278;2023-12-22T03:58:36;10.93;;;1.98;;
46322;SDS011;32044;52.386;13.278;2023-12-22T04:01:03;10.95;;;2.88;;
46322;SDS011;32044;52.386;13.278;2023-12-22T04:03:34;8.13;;;1.80;;
46322;SDS011;32044;52.386;13.278;2023-12-22T04:06:01;7.05;;;1.58;;
46322;SDS011;32044;52.386;13.278;2023-12-22T04:08:30;11.50;;;2.03;;
46322;SDS011;32044;52.386;13.278;2023-12-22T04:10:58;5.53;;;1.52;;
46322;SDS011;32044;52.386;13.278;2023-12-22T04:13:25;8.90;;;2.65;;
46322;SDS011;32044;52.386;13.278;2023-12-22T04:15:53;8.63;;;1.90;;
46322;SDS011;32044;52.386;13.278;2023-12-22T04:18:20;5.68;;;1.50;;
46322;SDS011;32044;52.386;13.278;2023-12-22T04:20:48;12.13;;;1.90;;
46322;SDS011;32044;52.386;13.278;2023-12-22T04:23:16;6.50;;;1.42;;
46322;SDS011;32044;52.386;13.278;2023-12-22T04:25:44;10.75;;;1.90;;
46322;SDS011;32044;52.386;13.278;2023-12-22T04:28:12;10.40;;;2.05;;
46322;SDS011;32044;52.386;13.278;2023-12-22T04:30:39;9.52;;;1.70;;
46322;SDS011;32044;52.386;13.278;2023-12-22T04:33:07;7.20;;;2.40;;
46322;SDS011;32044;52.386;13.278;2023-12-22T04:35:34;5.97;;;1.58;;
46322;SDS011;32044;52.386;13.278;2023-12-22T04:38:02;12.88;;;2.22;;
46322;SDS011;32044;52.386;13.278;2023-12-22T04:40:29;4.35;;;1.70;;
46322;SDS011;32044;52.386;13.278;2023-12-22T04:42:58;7.65;;;1.58;;
46322;SDS011;32044;52.386;13.278;2023-12-22T04:45:26;7.72;;;1.70;;
46322;SDS011;32044;52.386;13.278;2023-12-22T04:47:53;10.40;;;1.77;;
46322;SDS011;32044;52.386;13.278;2023-12-22T04:50:20;8.40;;;2.00;;
46322;SDS011;32044;52.386;13.278;2023-12-22T04:52:48;11.48;;;2.03;;
46322;SDS011;32044;52.386;13.278;2023-12-22T04:55:15;11.00;;;2.72;;
46322;SDS011;32044;52.386;13.278;2023-12-22T04:57:44;9.43;;;2.15;;
46322;SDS011;32044;52.386;13.278;2023-12-22T05:00:14;8.77;;;1.73;;
46322;SDS011;32044;52.386;13.278;2023-12-22T05:02:41;4.53;;;1.23;;
46322;SDS011;32044;52.386;13.278;2023-12-22T05:05:09;4.65;;;0.82;;
46322;SDS011;32044;52.386;13.278;2023-12-22T05:07:38;3.33;;;0.70;;
46322;SDS011;32044;52.386;13.278;2023-12-22T05:10:06;6.32;;;1.42;;
46322;SDS011;32044;52.386;13.278;2023-12-22T05:12:34;3.13;;;1.00;;
46322;SDS011;32044;52.386;13.278;2023-12-22T05:15:02;5.20;;;1.05;;
46322;SDS011;32044;52.386;13.278;2023-12-22T05:17:31;4.40;;;1.13;;
46322;SDS011;32044;52.386;13.278;2023-12-22T05:20:00;4.80;;;0.98;;
46322;SDS011;32044;52.386;13.278;2023-12-22T05:22:27;5.57;;;1.58;;
46322;SDS011;32044;52.386;13.278;2023-12-22T05:25:02;3.03;;;1.10;;
46322;SDS011;32044;52.386;13.278;2023-12-22T05:27:29;8.82;;;1.85;;
46322;SDS011;32044;52.386;13.278;2023-12-22T05:29:57;5.93;;;1.67;;
46322;SDS011;32044;52.386;13.278;2023-12-22T05:32:27;10.68;;;1.50;;
46322;SDS011;32044;52.386;13.278;2023-12-22T05:34:56;12.23;;;1.52;;
46322;SDS011;32044;52.386;13.278;2023-12-22T05:37:24;9.82;;;1.15;;
46322;SDS011;32044;52.386;13.278;2023-12-22T05:39:51;10.98;;;2.15;;
46322;SDS011;32044;52.386;13.278;2023-12-22T05:42:18;14.45;;;2.10;;
46322;SDS011;32044;52.386;13.278;2023-12-22T05:44:46;20.10;;;2.30;;
46322;SDS011;32044;52.386;13.278;2023-12-22T05:47:16;11.43;;;2.30;;
46322;SDS011;32044;52.386;13.278;2023-12-22T05:49:44;12.70;;;1.92;;
46322;SDS011;32044;52.386;13.278;2023-12-22T05:52:12;10.30;;;2.22;;
46322;SDS011;32044;52.386;13.278;2023-12-22T05:54:40;11.18;;;2.15;;
46322;SDS011;32044;52.386;13.278;2023-12-22T05:57:06;13.13;;;2.10;;
46322;SDS011;32044;52.386;13.278;2023-12-22T05:59:34;12.02;;;1.67;;
46322;SDS011;32044;52.386;13.278;2023-12-22T06:02:01;12.32;;;1.75;;
46322;SDS011;32044;52.386;13.278;2023-12-22T06:04:30;8.55;;;2.05;;
46322;SDS011;32044;52.386;13.278;2023-12-22T06:06:57;9.63;;;2.22;;
46322;SDS011;32044;52.386;13.278;2023-12-22T06:09:26;7.22;;;1.55;;
46322;SDS011;32044;52.386;13.278;2023-12-22T06:11:54;5.13;;;1.40;;
46322;SDS011;32044;52.386;13.278;2023-12-22T06:14:22;5.32;;;0.90;;
46322;SDS011;32044;52.386;13.278;2023-12-22T06:16:49;8.00;;;1.58;;
46322;SDS011;32044;52.386;13.278;2023-12-22T06:19:17;4.22;;;1.13;;
46322;SDS011;32044;52.386;13.278;2023-12-22T06:21:45;6.60;;;1.30;;
46322;SDS011;32044;52.386;13.278;2023-12-22T06:24:12;1.52;;;0.68;;
46322;SDS011;32044;52.386;13.278;2023-12-22T06:26:41;4.63;;;1.10;;
46322;SDS011;32044;52.386;13.278;2023-12-22T06:29:08;5.82;;;0.90;;
46322;SDS011;32044;52.386;13.278;2023-12-22T06:31:36;2.40;;;0.93;;
46322;SDS011;32044;52.386;13.278;2023-12-22T06:34:04;2.42;;;0.73;;
46322;SDS011;32044;52.386;13.278;2023-12-22T06:36:32;0.80;;;0.70;;
46322;SDS011;32044;52.386;13.278;2023-12-22T06:38:59;3.63;;;1.00;;
46322;SDS011;32044;52.386;13.278;2023-12-22T06:41:27;2.83;;;0.70;;
46322;SDS011;32044;52.386;13.278;2023-12-22T06:43:57;6.38;;;1.20;;
46322;SDS011;32044;52.386;13.278;2023-12-22T06:46:26;3.22;;;1.00;;
46322;SDS011;32044;52.386;13.278;2023-12-22T06:48:54;4.32;;;1.00;;
46322;SDS011;32044;52.386;13.278;2023-12-22T06:51:23;5.88;;;1.38;;
46322;SDS011;32044;52.386;13.278;2023-12-22T06:53:50;5.53;;;1.08;;
46322;SDS011;32044;52.386;13.278;2023-12-22T06:56:18;5.38;;;1.80;;
46322;SDS011;32044;52.386;13.278;2023-12-22T06:58:46;4.05;;;1.38;;
46322;SDS011;32044;52.386;13.278;2023-12-22T07:01:19;3.70;;;1.13;;
46322;SDS011;32044;52.386;13.278;2023-12-22T07:03:47;4.10;;;1.35;;
46322;SDS011;32044;52.386;13.278;2023-12-22T07:06:15;7.95;;;1.45;;
46322;SDS011;32044;52.386;13.278;2023-12-22T07:08:43;8.93;;;1.25;;
46322;SDS011;32044;52.386;13.278;2023-12-22T07:13:56;10.25;;;1.45;;
46322;SDS011;32044;52.386;13.278;2023-12-22T07:16:29;3.78;;;1.25;;
46322;SDS011;32044;52.386;13.278;2023-12-22T07:21:24;7.32;;;1.52;;
46322;SDS011;32044;52.386;13.278;2023-12-22T07:23:51;8.50;;;1.65;;
46322;SDS011;32044;52.386;13.278;2023-12-22T07:26:19;6.47;;;1.40;;
46322;SDS011;32044;52.386;13.278;2023-12-22T07:28:47;6.93;;;1.40;;
46322;SDS011;32044;52.386;13.278;2023-12-22T07:31:18;7.20;;;0.97;;
46322;SDS011;32044;52.386;13.278;2023-12-22T07:33:48;7.93;;;1.50;;
46322;SDS011;32044;52.386;13.278;2023-12-22T07:36:15;4.78;;;1.35;;
46322;SDS011;32044;52.386;13.278;2023-12-22T07:38:45;9.05;;;1.30;;
46322;SDS011;32044;52.386;13.278;2023-12-22T07:41:13;7.97;;;1.40;;
46322;SDS011;32044;52.386;13.278;2023-12-22T07:43:42;5.38;;;1.60;;
46322;SDS011;32044;52.386;13.278;2023-12-22T07:46:16;9.90;;;1.65;;
46322;SDS011;32044;52.386;13.278;2023-12-22T07:48:43;8.27;;;1.25;;
46322;SDS011;32044;52.386;13.278;2023-12-22T07:51:13;7.28;;;1.27;;
46322;SDS011;32044;52.386;13.278;2023-12-22T07:53:40;11.07;;;1.80;;
46322;SDS011;32044;52.386;13.278;2023-12-22T07:56:09;12.80;;;2.45;;
46322;SDS011;32044;52.386;13.278;2023-12-22T07:58:38;8.88;;;1.60;;
46322;SDS011;32044;52.386;13.278;2023-12-22T08:01:06;7.22;;;1.55;;
46322;SDS011;32044;52.386;13.278;2023-12-22T08:03:33;5.40;;;1.48;;
46322;SDS011;32044;52.386;13.278;2023-12-22T08:06:01;7.30;;;1.77;;
46322;SDS011;32044;52.386;13.278;2023-12-22T08:08:31;5.25;;;1.13;;
46322;SDS011;32044;52.386;13.278;2023-12-22T08:10:59;6.20;;;1.40;;
46322;SDS011;32044;52.386;13.278;2023-12-22T08:13:27;8.75;;;1.60;;
46322;SDS011;32044;52.386;13.278;2023-12-22T08:15:55;6.35;;;1.20;;
46322;SDS011;32044;52.386;13.278;2023-12-22T08:18:22;4.50;;;1.55;;
46322;SDS011;32044;52.386;13.278;2023-12-22T08:20:50;2.83;;;0.80;;
46322;SDS011;32044;52.386;13.278;2023-12-22T08:23:18;3.78;;;1.20;;
46322;SDS011;32044;52.386;13.278;2023-12-22T08:25:50;2.35;;;1.30;;
46322;SDS011;32044;52.386;13.278;2023-12-22T08:28:18;6.47;;;1.15;;
46322;SDS011;32044;52.386;13.278;2023-12-22T08:30:45;4.28;;;1.10;;
46322;SDS011;32044;52.386;13.278;2023-12-22T08:33:13;5.05;;;1.50;;
46322;SDS011;32044;52.386;13.278;2023-12-22T08:35:40;9.27;;;1.63;;
46322;SDS011;32044;52.386;13.278;2023-12-22T08:38:08;3.92;;;1.25;;
46322;SDS011;32044;52.386;13.278;2023-12-22T08:40:37;7.90;;;1.30;;
46322;SDS011;32044;52.386;13.278;2023-12-22T08:43:06;7.07;;;1.60;;
46322;SDS011;32044;52.386;13.278;2023-12-22T08:45:34;6.00;;;1.52;;
46322;SDS011;32044;52.386;13.278;2023-12-22T08:48:02;9.75;;;2.00;;
46322;SDS011;32044;52.386;13.278;2023-12-22T08:50:34;6.55;;;1.40;;
46322;SDS011;32044;52.386;13.278;2023-12-22T08:53:04;11.23;;;1.77;;
46322;SDS011;32044;52.386;13.278;2023-12-22T08:55:31;7.75;;;1.55;;
46322;SDS011;32044;52.386;13.278;2023-12-22T08:57:59;12.32;;;1.70;;
46322;SDS011;32044;52.386;13.278;2023-12-22T09:00:30;9.88;;;2.10;;
46322;SDS011;32044;52.386;13.278;2023-12-22T09:02:57;10.68;;;1.75;;
46322;SDS011;32044;52.386;13.278;2023-12-22T09:05:24;8.90;;;1.60;;
46322;SDS011;32044;52.386;13.278;2023-12-22T09:07:52;10.82;;;2.17;;
46322;SDS011;32044;52.386;13.278;2023-12-22T09:10:30;9.05;;;2.08;;
46322;SDS011;32044;52.386;13.278;2023-12-22T09:12:59;7.18;;;1.50;;
46322;SDS011;32044;52.386;13.278;2023-12-22T09:15:27;10.18;;;1.65;;
46322;SDS011;32044;52.386;13.278;2023-12-22T09:17:55;10.75;;;2.03;;
46322;SDS011;32044;52.386;13.278;2023-12-22T09:20:23;9.68;;;1.67;;
46322;SDS011;32044;52.386;13.278;2023-12-22T09:22:51;8.73;;;2.13;;
46322;SDS011;32044;52.386;13.278;2023-12-22T09:25:19;18.35;;;2.95;;
46322;SDS011;32044;52.386;13.278;2023-12-22T09:27:46;15.18;;;2.35;;
46322;SDS011;32044;52.386;13.278;2023-12-22T09:30:14;17.45;;;2.65;;
46322;SDS011;32044;52.386;13.278;2023-12-22T09:32:42;15.18;;;2.50;;
46322;SDS011;32044;52.386;13.278;2023-12-22T09:35:11;17.48;;;3.15;;
46322;SDS011;32044;52.386;13.278;2023-12-22T09:37:39;13.50;;;2.45;;
46322;SDS011;32044;52.386;13.278;2023-12-22T09:40:07;15.02;;;2.55;;
46322;SDS011;32044;52.386;13.278;2023-12-22T09:42:37;18.55;;;2.95;;
46322;SDS011;32044;52.386;13.278;2023-12-22T09:45:05;12.20;;;2.03;;
46322;SDS011;32044;52.386;13.278;2023-12-22T09:47:33;9.68;;;2.00;;
46322;SDS011;32044;52.386;13.278;2023-12-22T09:50:02;13.82;;;2.97;;
46322;SDS011;32044;52.386;13.278;2023-12-22T09:52:31;17.98;;;2.65;;
46322;SDS011;32044;52.386;13.278;2023-12-22T09:55:01;14.35;;;2.67;;
46322;SDS011;32044;52.386;13.278;2023-12-22T09:57:28;15.00;;;2.38;;
46322;SDS011;32044;52.386;13.278;2023-12-22T09:59:57;16.10;;;2.70;;
46322;SDS011;32044;52.386;13.278;2023-12-22T10:02:26;16.83;;;2.90;;
46322;SDS011;32044;52.386;13.278;2023-12-22T10:04:55;11.10;;;2.25;;
46322;SDS011;32044;52.386;13.278;2023-12-22T10:07:22;15.20;;;2.63;;
46322;SDS011;32044;52.386;13.278;2023-12-22T10:09:52;16.73;;;3.30;;
46322;SDS011;32044;52.386;13.278;2023-12-22T10:12:19;13.38;;;2.75;;
46322;SDS011;32044;52.386;13.278;2023-12-22T10:14:47;20.17;;;3.20;;
46322;SDS011;32044;52.386;13.278;2023-12-22T10:17:15;22.85;;;3.00;;
46322;SDS011;32044;52.386;13.278;2023-12-22T10:19:43;20.63;;;2.63;;
46322;SDS011;32044;52.386;13.278;2023-12-22T10:22:10;22.27;;;3.53;;
46322;SDS011;32044;52.386;13.278;2023-12-22T10:24:39;15.65;;;2.65;;
46322;SDS011;32044;52.386;13.278;2023-12-22T10:27:10;17.00;;;3.20;;
46322;SDS011;32044;52.386;13.278;2023-12-22T10:29:38;17.15;;;2.95;;
46322;SDS011;32044;52.386;13.278;2023-12-22T10:32:06;21.42;;;2.45;;
46322;SDS011;32044;52.386;13.278;2023-12-22T10:34:35;11.68;;;2.50;;
46322;SDS011;32044;52.386;13.278;2023-12-22T10:37:03;23.60;;;3.08;;
46322;SDS011;32044;52.386;13.278;2023-12-22T10:39:31;15.55;;;2.35;;
46322;SDS011;32044;52.386;13.278;2023-12-22T10:41:59;22.48;;;3.08;;
46322;SDS011;32044;52.386;13.278;2023-12-22T10:44:29;13.85;;;2.90;;
46322;SDS011;32044;52.386;13.278;2023-12-22T10:46:56;21.58;;;2.85;;
46322;SDS011;32044;52.386;13.278;2023-12-22T10:49:25;14.88;;;2.42;;
46322;SDS011;32044;52.386;13.278;2023-12-22T10:51:52;14.27;;;3.33;;
46322;SDS011;32044;52.386;13.278;2023-12-22T10:54:20;11.60;;;2.03;;
46322;SDS011;32044;52.386;13.278;2023-12-22T10:56:47;11.45;;;2.10;;
46322;SDS011;32044;52.386;13.278;2023-12-22T10:59:16;6.78;;;1.63;;
46322;SDS011;32044;52.386;13.278;2023-12-22T11:01:45;10.25;;;2.20;;
46322;SDS011;32044;52.386;13.278;2023-12-22T11:04:17;9.57;;;1.80;;
46322;SDS011;32044;52.386;13.278;2023-12-22T11:06:46;9.02;;;2.25;;
46322;SDS011;32044;52.386;13.278;2023-12-22T11:09:15;10.63;;;2.30;;
46322;SDS011;32044;52.386;13.278;2023-12-22T11:11:43;9.57;;;2.35;;
46322;SDS011;32044;52.386;13.278;2023-12-22T11:14:11;11.32;;;2.35;;
46322;SDS011;32044;52.386;13.278;2023-12-22T11:16:40;11.40;;;2.63;;
46322;SDS011;32044;52.386;13.278;2023-12-22T11:19:15;17.10;;;3.03;;
46322;SDS011;32044;52.386;13.278;2023-12-22T11:21:43;9.45;;;2.17;;
46322;SDS011;32044;52.386;13.278;2023-12-22T11:24:11;14.85;;;2.80;;
46322;SDS011;32044;52.386;13.278;2023-12-22T11:26:41;14.23;;;2.60;;
46322;SDS011;32044;52.386;13.278;2023-12-22T11:29:09;11.77;;;2.63;;
46322;SDS011;32044;52.386;13.278;2023-12-22T11:31:37;18.25;;;2.75;;
46322;SDS011;32044;52.386;13.278;2023-12-22T11:34:04;18.92;;;2.83;;
46322;SDS011;32044;52.386;13.278;2023-12-22T11:36:42;11.15;;;2.83;;
46322;SDS011;32044;52.386;13.278;2023-12-22T11:39:10;14.13;;;2.17;;
46322;SDS011;32044;52.386;13.278;2023-12-22T11:41:38;10.80;;;2.15;;
46322;SDS011;32044;52.386;13.278;2023-12-22T11:44:07;16.67;;;2.70;;
46322;SDS011;32044;52.386;13.278;2023-12-22T11:46:35;13.88;;;2.38;;
46322;SDS011;32044;52.386;13.278;2023-12-22T11:49:03;8.77;;;1.80;;
46322;SDS011;32044;52.386;13.278;2023-12-22T11:51:31;13.35;;;2.13;;
46322;SDS011;32044;52.386;13.278;2023-12-22T11:54:02;16.63;;;2.38;;
46322;SDS011;32044;52.386;13.278;2023-12-22T11:56:30;11.35;;;2.60;;
46322;SDS011;32044;52.386;13.278;2023-12-22T11:58:58;11.10;;;2.17;;
46322;SDS011;32044;52.386;13.278;2023-12-22T12:01:28;9.55;;;2.60;;
46322;SDS011;32044;52.386;13.278;2023-12-22T12:03:59;9.85;;;2.05;;
46322;SDS011;32044;52.386;13.278;2023-12-22T12:06:32;10.52;;;2.28;;
46322;SDS011;32044;52.386;13.278;2023-12-22T12:09:03;13.07;;;2.83;;
46322;SDS011;32044;52.386;13.278;2023-12-22T12:14:19;11.27;;;2.30;;
46322;SDS011;32044;52.386;13.278;2023-12-22T12:16:49;14.73;;;2.58;;
46322;SDS011;32044;52.386;13.278;2023-12-22T12:19:16;7.15;;;2.00;;
46322;SDS011;32044;52.386;13.278;2023-12-22T12:21:45;11.57;;;2.58;;
46322;SDS011;32044;52.386;13.278;2023-12-22T12:24:14;12.75;;;2.28;;
46322;SDS011;32044;52.386;13.278;2023-12-22T12:26:42;15.75;;;3.22;;
46322;SDS011;32044;52.386;13.278;2023-12-22T12:29:10;11.10;;;2.38;;
46322;SDS011;32044;52.386;13.278;2023-12-22T12:31:38;11.98;;;2.55;;
46322;SDS011;32044;52.386;13.278;2023-12-22T12:34:08;12.70;;;1.90;;
46322;SDS011;32044;52.386;13.278;2023-12-22T12:36:38;8.73;;;1.98;;
46322;SDS011;32044;52.386;13.278;2023-12-22T12:39:06;11.20;;;2.58;;
46322;SDS011;32044;52.386;13.278;2023-12-22T12:41:39;15.63;;;2.38;;
46322;SDS011;32044;52.386;13.278;2023-12-22T12:44:07;11.40;;;2.75;;
46322;SDS011;32044;52.386;13.278;2023-12-22T12:46:37;15.70;;;2.80;;
46322;SDS011;32044;52.386;13.278;2023-12-22T12:49:05;13.73;;;2.70;;
46322;SDS011;32044;52.386;13.278;2023-12-22T12:51:35;12.90;;;2.47;;
46322;SDS011;32044;52.386;13.278;2023-12-22T12:54:04;14.20;;;3.00;;
46322;SDS011;32044;52.386;13.278;2023-12-22T12:56:37;11.35;;;2.97;;
46322;SDS011;32044;52.386;13.278;2023-12-22T12:59:06;10.60;;;2.08;;
46322;SDS011;32044;52.386;13.278;2023-12-22T13:01:37;13.73;;;2.92;;
46322;SDS011;32044;52.386;13.278;2023-12-22T13:04:05;19.45;;;2.85;;
46322;SDS011;32044;52.386;13.278;2023-12-22T13:06:33;25.73;;;3.65;;
46322;SDS011;32044;52.386;13.278;2023-12-22T13:09:00;13.63;;;2.40;;
46322;SDS011;32044;52.386;13.278;2023-12-22T13:11:30;12.00;;;2.90;;
46322;SDS011;32044;52.386;13.278;2023-12-22T13:13:59;21.30;;;2.83;;
46322;SDS011;32044;52.386;13.278;2023-12-22T13:16:27;19.90;;;2.72;;
46322;SDS011;32044;52.386;13.278;2023-12-22T13:18:56;13.35;;;2.65;;
46322;SDS011;32044;52.386;13.278;2023-12-22T13:21:24;12.57;;;2.22;;
46322;SDS011;32044;52.386;13.278;2023-12-22T13:26:34;14.57;;;3.10;;
46322;SDS011;32044;52.386;13.278;2023-12-22T13:29:03;15.90;;;3.45;;
46322;SDS011;32044;52.386;13.278;2023-12-22T13:31:31;18.33;;;3.13;;
46322;SDS011;32044;52.386;13.278;2023-12-22T13:33:59;10.02;;;2.58;;
46322;SDS011;32044;52.386;13.278;2023-12-22T13:36:26;19.77;;;3.53;;
46322;SDS011;32044;52.386;13.278;2023-12-22T13:38:54;16.15;;;2.75;;
46322;SDS011;32044;52.386;13.278;2023-12-22T13:41:21;23.70;;;3.80;;
46322;SDS011;32044;52.386;13.278;2023-12-22T13:43:49;21.33;;;3.50;;
46322;SDS011;32044;52.386;13.278;2023-12-22T13:46:18;14.27;;;2.65;;
46322;SDS011;32044;52.386;13.278;2023-12-22T13:48:45;15.15;;;2.97;;
46322;SDS011;32044;52.386;13.278;2023-12-22T13:51:13;11.73;;;2.20;;
46322;SDS011;32044;52.386;13.278;2023-12-22T13:53:47;18.17;;;2.85;;
46322;SDS011;32044;52.386;13.278;2023-12-22T13:56:14;9.57;;;2.22;;
46322;SDS011;32044;52.386;13.278;2023-12-22T13:58:45;10.35;;;2.15;;
46322;SDS011;32044;52.386;13.278;2023-12-22T14:01:13;9.55;;;2.47;;
46322;SDS011;32044;52.386;13.278;2023-12-22T14:03:43;8.35;;;1.80;;
46322;SDS011;32044;52.386;13.278;2023-12-22T14:06:11;8.38;;;1.67;;
46322;SDS011;32044;52.386;13.278;2023-12-22T14:08:39;7.20;;;1.73;;
46322;SDS011;32044;52.386;13.278;2023-12-22T14:11:06;7.10;;;1.60;;
46322;SDS011;32044;52.386;13.278;2023-12-22T14:13:34;6.57;;;2.08;;
46322;SDS011;32044;52.386;13.278;2023-12-22T14:16:05;5.10;;;1.60;;
46322;SDS011;32044;52.386;13.278;2023-12-22T14:18:32;5.95;;;1.42;;
46322;SDS011;32044;52.386;13.278;2023-12-22T14:21:01;9.13;;;1.70;;
46322;SDS011;32044;52.386;13.278;2023-12-22T14:23:30;6.00;;;1.52;;
46322;SDS011;32044;52.386;13.278;2023-12-22T14:25:57;7.13;;;1.40;;
46322;SDS011;32044;52.386;13.278;2023-12-22T14:28:25;5.22;;;1.48;;
46322;SDS011;32044;52.386;13.278;2023-12-22T14:30:54;10.27;;;2.03;;
46322;SDS011;32044;52.386;13.278;2023-12-22T14:33:21;9.05;;;1.58;;
46322;SDS011;32044;52.386;13.278;2023-12-22T14:35:49;10.25;;;1.73;;
46322;SDS011;32044;52.386;13.278;2023-12-22T14:38:17;7.20;;;1.95;;
46322;SDS011;32044;52.386;13.278;2023-12-22T14:40:45;5.95;;;1.38;;
46322;SDS011;32044;52.386;13.278;2023-12-22T14:43:12;7.80;;;1.45;;